Time;durP1;ratioP1;P1;durP2;ratioP2;P2;SDS_P1;SDS_P2;PMS_P1;PMS_P2;Temp;Humidity;BMP_temperature;BMP_pressure;BME280_temperature;BME280_humidity;BME280_pressure;Samples;Min_cycle;Max_cycle;Signal;HPM_P1;HPM_P2
2022/03/02 00:01:44;;;;;;;41.67;21.63;;;;;;;;;;4948583;28;20082;-64
2022/03/02 00:04:11;;;;;;;39.90;21.30;;;;;;;;;;4949325;28;20059;-64
2022/03/02 00:06:37;;;;;;;43.53;22.00;;;;;;;;;;4948970;28;20070;-64
2022/03/02 00:09:03;;;;;;;40.25;22.35;;;;;;;;;;4949712;28;20463;-64
2022/03/02 00:11:30;;;;;;;42.72;22.45;;;;;;;;;;4949021;28;20058;-64
2022/03/02 00:13:58;;;;;;;39.47;22.40;;;;;;;;;;4949108;28;20061;-64
2022/03/02 00:16:24;;;;;;;38.65;20.98;;;;;;;;;;4949085;28;20346;-64
2022/03/02 00:18:51;;;;;;;36.35;21.13;;;;;;;;;;4949646;28;20095;-64
2022/03/02 00:21:18;;;;;;;41.08;21.40;;;;;;;;;;4949659;28;20055;-64
2022/03/02 00:23:44;;;;;;;39.58;22.23;;;;;;;;;;4949373;28;20455;-64
2022/03/02 00:26:11;;;;;;;43.92;21.10;;;;;;;;;;4949236;28;20062;-64
2022/03/02 00:28:37;;;;;;;37.30;22.08;;;;;;;;;;4946809;28;20072;-64
2022/03/02 00:31:03;;;;;;;36.72;21.20;;;;;;;;;;4947819;28;20062;-64
2022/03/02 00:33:30;;;;;;;40.58;21.42;;;;;;;;;;4947424;28;20095;-64
2022/03/02 00:35:56;;;;;;;39.67;20.85;;;;;;;;;;4948895;28;20520;-66
2022/03/02 00:38:22;;;;;;;40.92;21.88;;;;;;;;;;4948540;28;20150;-65
2022/03/02 00:40:49;;;;;;;39.42;21.45;;;;;;;;;;4948611;28;20060;-65
2022/03/02 00:43:16;;;;;;;40.47;22.70;;;;;;;;;;4948411;28;20052;-65
2022/03/02 00:45:43;;;;;;;39.53;21.42;;;;;;;;;;4948983;28;20066;-65
2022/03/02 00:48:09;;;;;;;38.10;21.10;;;;;;;;;;4947908;28;20055;-65
2022/03/02 00:50:36;;;;;;;38.13;20.88;;;;;;;;;;4948163;28;20066;-65
2022/03/02 00:53:05;;;;;;;38.55;20.73;;;;;;;;;;4948695;28;20128;-65
2022/03/02 00:55:33;;;;;;;38.78;20.42;;;;;;;;;;4949027;28;20135;-65
2022/03/02 00:57:59;;;;;;;41.70;22.13;;;;;;;;;;4947751;28;20083;-65
2022/03/02 01:00:26;;;;;;;37.58;20.70;;;;;;;;;;4949554;28;20147;-65
2022/03/02 01:02:53;;;;;;;39.03;21.25;;;;;;;;;;4948504;28;20510;-65
2022/03/02 01:05:19;;;;;;;38.97;20.63;;;;;;;;;;4947840;28;20058;-65
2022/03/02 01:07:45;;;;;;;38.42;21.70;;;;;;;;;;4947909;28;20544;-65
2022/03/02 01:10:12;;;;;;;42.50;21.70;;;;;;;;;;4948556;28;20519;-65
2022/03/02 01:12:39;;;;;;;39.88;21.83;;;;;;;;;;4948882;28;20059;-65
2022/03/02 01:15:06;;;;;;;36.65;21.02;;;;;;;;;;4947996;28;20063;-65
2022/03/02 01:17:33;;;;;;;38.45;21.35;;;;;;;;;;4947415;28;20062;-65
2022/03/02 01:19:59;;;;;;;39.22;21.58;;;;;;;;;;4948779;28;20052;-65
2022/03/02 01:22:26;;;;;;;42.03;22.08;;;;;;;;;;4949002;28;20062;-65
2022/03/02 01:24:55;;;;;;;42.53;23.15;;;;;;;;;;4947952;28;20066;-66
2022/03/02 01:27:21;;;;;;;;;;;;;;;;;;4948508;28;20048;-66
2022/03/02 01:29:48;;;;;;;41.13;20.58;;;;;;;;;;4929343;28;45410;-65
2022/03/02 01:32:14;;;;;;;40.67;21.50;;;;;;;;;;4941879;28;20582;-65
2022/03/02 01:34:40;;;;;;;39.90;22.05;;;;;;;;;;4948631;28;20051;-65
2022/03/02 01:37:07;;;;;;;38.20;20.70;;;;;;;;;;4948028;28;20066;-65
2022/03/02 01:39:33;;;;;;;37.53;20.67;;;;;;;;;;4947059;28;20087;-65
2022/03/02 01:41:59;;;;;;;39.42;22.33;;;;;;;;;;4948711;28;20529;-65
2022/03/02 01:44:26;;;;;;;44.10;21.50;;;;;;;;;;4952265;28;20086;-65
2022/03/02 01:46:52;;;;;;;38.40;21.02;;;;;;;;;;4947650;28;20526;-65
2022/03/02 01:49:19;;;;;;;40.25;21.55;;;;;;;;;;4949998;28;20146;-65
2022/03/02 01:51:45;;;;;;;39.80;21.20;;;;;;;;;;4951593;28;20060;-65
2022/03/02 01:54:12;;;;;;;44.22;24.33;;;;;;;;;;4951675;28;20076;-65
2022/03/02 01:56:38;;;;;;;36.40;20.10;;;;;;;;;;4951192;28;20498;-65
2022/03/02 01:59:04;;;;;;;38.63;20.80;;;;;;;;;;4950889;28;20577;-65
2022/03/02 02:01:31;;;;;;;38.67;22.02;;;;;;;;;;4951444;28;20895;-65
2022/03/02 02:03:58;;;;;;;39.15;21.17;;;;;;;;;;4950614;28;20059;-63
2022/03/02 02:06:25;;;;;;;38.67;21.15;;;;;;;;;;4951070;28;20058;-63
2022/03/02 02:08:52;;;;;;;38.17;21.67;;;;;;;;;;4951525;28;20058;-66
2022/03/02 02:11:19;;;;;;;39.65;21.25;;;;;;;;;;4951044;28;20210;-63
2022/03/02 02:13:45;;;;;;;37.40;19.98;;;;;;;;;;4950884;28;20058;-64
2022/03/02 02:16:13;;;;;;;39.97;20.50;;;;;;;;;;4950275;28;20109;-64
2022/03/02 02:18:40;;;;;;;39.55;21.50;;;;;;;;;;4951331;28;20052;-64
2022/03/02 02:21:07;;;;;;;36.67;21.20;;;;;;;;;;4951655;28;20553;-64
2022/03/02 02:23:34;;;;;;;38.80;21.52;;;;;;;;;;4951329;28;20063;-65
2022/03/02 02:26:01;;;;;;;36.67;20.58;;;;;;;;;;4951349;28;20196;-65
2022/03/02 02:28:28;;;;;;;37.90;22.17;;;;;;;;;;4950950;28;20051;-67
2022/03/02 02:30:55;;;;;;;41.08;21.90;;;;;;;;;;4951294;28;20060;-65
2022/03/02 02:33:22;;;;;;;41.92;21.30;;;;;;;;;;4949864;28;20120;-65
2022/03/02 02:35:49;;;;;;;38.67;20.90;;;;;;;;;;4950284;28;20087;-65
2022/03/02 02:38:15;;;;;;;40.00;21.35;;;;;;;;;;4951772;28;20070;-65
2022/03/02 02:40:42;;;;;;;41.75;21.40;;;;;;;;;;4950609;28;20563;-65
2022/03/02 02:43:08;;;;;;;41.22;20.35;;;;;;;;;;4950518;28;20052;-63
2022/03/02 02:45:34;;;;;;;38.05;20.77;;;;;;;;;;4950239;28;20099;-66
2022/03/02 02:48:01;;;;;;;37.65;21.20;;;;;;;;;;4951570;28;20174;-63
2022/03/02 02:50:29;;;;;;;41.17;21.83;;;;;;;;;;4950832;28;20055;-66
2022/03/02 02:52:57;;;;;;;36.38;19.70;;;;;;;;;;4951473;28;20056;-63
2022/03/02 02:55:27;;;;;;;39.50;20.93;;;;;;;;;;4949526;28;20502;-63
2022/03/02 02:57:53;;;;;;;37.05;20.38;;;;;;;;;;4950174;28;20060;-63
2022/03/02 03:00:21;;;;;;;39.30;20.90;;;;;;;;;;4951202;28;20062;-66
2022/03/02 03:02:48;;;;;;;34.33;19.92;;;;;;;;;;4950961;28;20051;-63
2022/03/02 03:05:16;;;;;;;37.00;21.43;;;;;;;;;;4949548;28;20087;-63
2022/03/02 03:07:43;;;;;;;36.92;21.13;;;;;;;;;;4950002;28;20410;-63
2022/03/02 03:10:11;;;;;;;37.13;21.77;;;;;;;;;;4950330;28;20063;-63
2022/03/02 03:12:37;;;;;;;39.63;21.65;;;;;;;;;;4949749;28;20059;-63
2022/03/02 03:15:04;;;;;;;39.65;21.42;;;;;;;;;;4949959;28;20065;-63
2022/03/02 03:17:31;;;;;;;40.33;22.48;;;;;;;;;;4949921;28;20056;-63
2022/03/02 03:19:58;;;;;;;39.90;21.23;;;;;;;;;;4950081;28;20083;-63
2022/03/02 03:22:24;;;;;;;43.75;20.85;;;;;;;;;;4950452;28;20058;-63
2022/03/02 03:24:51;;;;;;;36.90;21.30;;;;;;;;;;4949154;28;20597;-63
2022/03/02 03:27:18;;;;;;;43.00;22.92;;;;;;;;;;4950329;28;20058;-63
2022/03/02 03:29:44;;;;;;;41.05;22.52;;;;;;;;;;4950164;28;20150;-63
2022/03/02 03:32:10;;;;;;;38.72;21.17;;;;;;;;;;4950671;28;20047;-63
2022/03/02 03:34:37;;;;;;;38.20;22.02;;;;;;;;;;4948777;28;20056;-66
2022/03/02 03:37:03;;;;;;;38.97;21.50;;;;;;;;;;4950211;28;20051;-63
2022/03/02 03:39:29;;;;;;;38.72;22.08;;;;;;;;;;4950136;28;20047;-63
2022/03/02 03:41:56;;;;;;;39.17;20.35;;;;;;;;;;4949993;28;20043;-63
2022/03/02 03:44:23;;;;;;;39.75;21.08;;;;;;;;;;4949243;28;20491;-63
2022/03/02 03:46:49;;;;;;;37.85;20.55;;;;;;;;;;4949566;28;20442;-63
2022/03/02 03:49:16;;;;;;;39.08;21.38;;;;;;;;;;4949830;28;20518;-63
2022/03/02 03:51:42;;;;;;;39.90;22.00;;;;;;;;;;4949315;28;20066;-63
2022/03/02 03:54:10;;;;;;;41.70;22.35;;;;;;;;;;4948855;28;20108;-64
2022/03/02 03:56:36;;;;;;;40.80;22.55;;;;;;;;;;4949350;28;20186;-64
2022/03/02 03:59:02;;;;;;;42.53;22.38;;;;;;;;;;4949836;28;20073;-64
2022/03/02 04:01:29;;;;;;;40.08;22.13;;;;;;;;;;4949595;28;20189;-64
2022/03/02 04:03:55;;;;;;;40.05;21.75;;;;;;;;;;4948781;28;20051;-64
2022/03/02 04:06:22;;;;;;;38.05;21.10;;;;;;;;;;4949710;28;20063;-64
2022/03/02 04:08:48;;;;;;;40.58;20.92;;;;;;;;;;4949524;28;20059;-64
2022/03/02 04:11:14;;;;;;;41.08;22.20;;;;;;;;;;4948835;28;20083;-64
2022/03/02 04:13:41;;;;;;;36.30;20.95;;;;;;;;;;4948768;28;20138;-64
2022/03/02 04:16:07;;;;;;;37.30;21.27;;;;;;;;;;4947597;28;20059;-64
2022/03/02 04:18:34;;;;;;;40.88;22.25;;;;;;;;;;4949504;28;20091;-64
2022/03/02 04:21:00;;;;;;;39.22;21.80;;;;;;;;;;4948937;28;20060;-64
2022/03/02 04:23:27;;;;;;;43.83;21.85;;;;;;;;;;4948676;28;20064;-64
2022/03/02 04:25:56;;;;;;;36.00;19.58;;;;;;;;;;4948452;28;20087;-64
2022/03/02 04:28:23;;;;;;;39.20;21.30;;;;;;;;;;4949253;28;20545;-63
2022/03/02 04:30:49;;;;;;;37.30;20.00;;;;;;;;;;4949348;28;20526;-63
2022/03/02 04:33:15;;;;;;;42.25;20.92;;;;;;;;;;4949114;28;20055;-64
2022/03/02 04:35:42;;;;;;;36.55;20.33;;;;;;;;;;4948426;28;20056;-64
2022/03/02 04:38:10;;;;;;;37.65;20.70;;;;;;;;;;4949753;28;20061;-64
2022/03/02 04:40:36;;;;;;;38.63;21.23;;;;;;;;;;4948965;28;20532;-64
2022/03/02 04:43:02;;;;;;;35.42;20.00;;;;;;;;;;4948338;28;20057;-64
2022/03/02 04:45:29;;;;;;;37.97;19.48;;;;;;;;;;4948119;28;20055;-64
2022/03/02 04:47:56;;;;;;;40.78;20.45;;;;;;;;;;4948613;28;20069;-64
2022/03/02 04:50:23;;;;;;;37.28;21.17;;;;;;;;;;4949073;28;20095;-64
2022/03/02 04:52:50;;;;;;;40.97;20.52;;;;;;;;;;4948886;28;20056;-65
2022/03/02 04:55:16;;;;;;;35.88;20.30;;;;;;;;;;4948318;28;20064;-64
2022/03/02 04:57:44;;;;;;;37.75;20.25;;;;;;;;;;4932284;28;20051;-63
2022/03/02 05:00:12;;;;;;;37.65;20.20;;;;;;;;;;4948802;28;20061;-63
2022/03/02 05:02:39;;;;;;;39.40;20.50;;;;;;;;;;4948760;28;20070;-63
2022/03/02 05:05:06;;;;;;;39.40;20.20;;;;;;;;;;4948722;28;20111;-63
2022/03/02 05:07:32;;;;;;;39.58;20.25;;;;;;;;;;4948948;28;20050;-66
2022/03/02 05:09:59;;;;;;;37.65;20.52;;;;;;;;;;4948317;28;20150;-65
2022/03/02 05:12:25;;;;;;;39.80;20.38;;;;;;;;;;4946874;28;20151;-66
2022/03/02 05:14:51;;;;;;;40.13;20.25;;;;;;;;;;4948427;28;20150;-64
2022/03/02 05:17:18;;;;;;;35.45;20.52;;;;;;;;;;4949378;28;20066;-64
2022/03/02 05:19:44;;;;;;;37.38;20.70;;;;;;;;;;4951973;28;20155;-64
2022/03/02 05:22:10;;;;;;;36.75;19.35;;;;;;;;;;4951224;28;20525;-64
2022/03/02 05:24:38;;;;;;;39.67;20.70;;;;;;;;;;4952409;28;20134;-64
2022/03/02 05:27:05;;;;;;;36.47;19.60;;;;;;;;;;4952227;28;20064;-64
2022/03/02 05:29:31;;;;;;;43.45;19.90;;;;;;;;;;4952052;28;20062;-64
2022/03/02 05:31:58;;;;;;;40.65;20.05;;;;;;;;;;4950402;28;20138;-64
2022/03/02 05:34:24;;;;;;;37.75;19.77;;;;;;;;;;4951799;28;20434;-64
2022/03/02 05:36:51;;;;;;;39.05;20.30;;;;;;;;;;4952225;28;20150;-64
2022/03/02 05:39:17;;;;;;;35.95;19.52;;;;;;;;;;4951147;28;20142;-64
2022/03/02 05:41:44;;;;;;;39.65;19.70;;;;;;;;;;4951103;28;20062;-64
2022/03/02 05:44:11;;;;;;;35.65;18.98;;;;;;;;;;4951943;28;20092;-65
2022/03/02 05:46:38;;;;;;;38.83;20.25;;;;;;;;;;4952031;28;20052;-64
2022/03/02 05:49:05;;;;;;;35.33;19.10;;;;;;;;;;4951749;28;20060;-64
2022/03/02 05:51:31;;;;;;;36.45;20.13;;;;;;;;;;4933614;28;20150;-64
2022/03/02 05:53:58;;;;;;;35.72;19.45;;;;;;;;;;4950211;28;20066;-65
2022/03/02 05:56:25;;;;;;;36.08;18.88;;;;;;;;;;4951831;28;20134;-64
2022/03/02 05:58:54;;;;;;;37.55;20.00;;;;;;;;;;4951840;28;20056;-64
2022/03/02 06:01:20;;;;;;;37.00;19.42;;;;;;;;;;4951153;28;20059;-64
2022/03/02 06:03:47;;;;;;;35.28;19.63;;;;;;;;;;4948854;28;20051;-64
2022/03/02 06:06:35;;;;;;;38.35;19.75;;;;;;;;;;4951344;28;20880;-64
2022/03/02 06:09:02;;;;;;;36.70;19.98;;;;;;;;;;4951638;28;20130;-64
2022/03/02 06:11:29;;;;;;;36.90;18.80;;;;;;;;;;4950758;28;20051;-64
2022/03/02 06:13:56;;;;;;;39.45;20.02;;;;;;;;;;4951235;28;20151;-64
2022/03/02 06:16:23;;;;;;;42.97;20.15;;;;;;;;;;4951337;28;20066;-65
2022/03/02 06:18:49;;;;;;;42.20;19.73;;;;;;;;;;4950951;28;20051;-64
2022/03/02 06:21:18;;;;;;;40.03;19.23;;;;;;;;;;4947872;28;20079;-64
2022/03/02 06:23:44;;;;;;;36.83;19.58;;;;;;;;;;4949848;28;20860;-64
2022/03/02 06:26:11;;;;;;;35.50;18.95;;;;;;;;;;4951601;28;20051;-65
2022/03/02 06:28:37;;;;;;;37.75;19.45;;;;;;;;;;4948774;28;20058;-64
2022/03/02 06:31:03;;;;;;;40.67;18.70;;;;;;;;;;4950676;28;20134;-64
2022/03/02 06:33:30;;;;;;;42.30;20.17;;;;;;;;;;4950181;28;20051;-64
2022/03/02 06:35:56;;;;;;;39.15;20.58;;;;;;;;;;4950676;28;20146;-65
2022/03/02 06:38:22;;;;;;;36.92;19.15;;;;;;;;;;4950391;28;20047;-64
2022/03/02 06:40:58;;;;;;;37.38;18.83;;;;;;;;;;4950767;28;20047;-65
2022/03/02 06:43:25;;;;;;;41.92;20.25;;;;;;;;;;4948261;28;20091;-64
2022/03/02 06:45:52;;;;;;;45.20;20.55;;;;;;;;;;4950681;28;20056;-64
2022/03/02 06:48:24;;;;;;;40.10;20.38;;;;;;;;;;4950017;28;20116;-64
2022/03/02 06:50:52;;;;;;;41.08;18.90;;;;;;;;;;4950595;28;20060;-65
2022/03/02 06:53:22;;;;;;;37.75;19.33;;;;;;;;;;4949930;28;20398;-65
2022/03/02 06:55:49;;;;;;;38.78;19.38;;;;;;;;;;4950609;28;20060;-65
2022/03/02 06:58:20;;;;;;;37.38;20.13;;;;;;;;;;4950613;28;20052;-64
2022/03/02 07:00:50;;;;;;;37.05;18.88;;;;;;;;;;4950190;28;20753;-64
2022/03/02 07:03:18;;;;;;;33.90;17.38;;;;;;;;;;4950020;28;20112;-65
2022/03/02 07:05:48;;;;;;;42.55;19.58;;;;;;;;;;4948804;28;20522;-64
2022/03/02 07:08:15;;;;;;;34.38;18.30;;;;;;;;;;4949512;28;20150;-64
2022/03/02 07:10:41;;;;;;;32.47;18.00;;;;;;;;;;4948703;28;20210;-65
2022/03/02 07:13:09;;;;;;;52.95;20.33;;;;;;;;;;4948711;28;20387;-64
2022/03/02 07:15:35;;;;;;;37.05;19.65;;;;;;;;;;4949772;28;20147;-66
2022/03/02 07:18:03;;;;;;;40.65;19.35;;;;;;;;;;4948804;28;20051;-62
2022/03/02 07:20:29;;;;;;;35.90;19.85;;;;;;;;;;4944310;28;20048;-64
2022/03/02 07:22:57;;;;;;;37.20;20.30;;;;;;;;;;4950230;28;20056;-64
2022/03/02 07:25:29;;;;;;;33.17;19.23;;;;;;;;;;4947919;28;20056;-65
2022/03/02 07:27:56;;;;;;;38.78;19.63;;;;;;;;;;4949748;28;20048;-63
2022/03/02 07:30:23;;;;;;;34.53;19.17;;;;;;;;;;4949121;28;20058;-64
2022/03/02 07:32:53;;;;;;;36.92;19.38;;;;;;;;;;4949573;28;20052;-63
2022/03/02 07:35:19;;;;;;;36.75;19.48;;;;;;;;;;4948906;28;22044;-64
2022/03/02 07:37:46;;;;;;;37.58;18.42;;;;;;;;;;4948909;28;20504;-64
2022/03/02 07:40:15;;;;;;;42.50;20.13;;;;;;;;;;4948770;28;20062;-64
2022/03/02 07:42:42;;;;;;;42.42;20.02;;;;;;;;;;4948178;28;20056;-64
2022/03/02 07:45:08;;;;;;;44.90;21.30;;;;;;;;;;4949636;28;20052;-63
2022/03/02 07:47:35;;;;;;;38.75;19.65;;;;;;;;;;4947957;28;20511;-62
2022/03/02 07:50:02;;;;;;;38.22;20.08;;;;;;;;;;4949299;28;20055;-62
2022/03/02 07:52:29;;;;;;;38.45;21.48;;;;;;;;;;4949808;28;20268;-62
2022/03/02 07:54:58;;;;;;;39.53;19.88;;;;;;;;;;4948990;28;20091;-63
2022/03/02 07:57:24;;;;;;;41.45;21.42;;;;;;;;;;4948231;28;20593;-62
2022/03/02 07:59:52;;;;;;;41.22;20.67;;;;;;;;;;4947890;28;20058;-63
2022/03/02 08:02:19;;;;;;;40.35;20.60;;;;;;;;;;4949085;28;20179;-63
2022/03/02 08:04:50;;;;;;;39.97;20.60;;;;;;;;;;4941930;28;20060;-63
2022/03/02 08:07:16;;;;;;;47.10;23.02;;;;;;;;;;4936357;28;20510;-62
2022/03/02 08:09:43;;;;;;;42.78;21.58;;;;;;;;;;4941194;28;20056;-62
2022/03/02 08:12:10;;;;;;;42.08;22.10;;;;;;;;;;4947090;28;20107;-62
2022/03/02 08:14:38;;;;;;;41.70;21.70;;;;;;;;;;4947850;28;20051;-62
2022/03/02 08:17:05;;;;;;;40.42;20.88;;;;;;;;;;4949505;28;20282;-62
2022/03/02 08:19:31;;;;;;;44.70;22.77;;;;;;;;;;4945593;28;20130;-64
2022/03/02 08:22:01;;;;;;;44.80;23.00;;;;;;;;;;4948562;28;20073;-64
2022/03/02 08:24:27;;;;;;;42.33;22.35;;;;;;;;;;4947841;28;20056;-65
2022/03/02 08:26:58;;;;;;;41.97;21.65;;;;;;;;;;4949426;28;20144;-65
2022/03/02 08:29:26;;;;;;;40.05;21.60;;;;;;;;;;4949419;28;20060;-65
2022/03/02 08:31:54;;;;;;;42.47;22.80;;;;;;;;;;4948564;28;20056;-65
2022/03/02 08:34:20;;;;;;;47.08;21.92;;;;;;;;;;4949417;28;20133;-65
2022/03/02 08:36:48;;;;;;;42.33;21.02;;;;;;;;;;4949587;28;20056;-65
2022/03/02 08:39:14;;;;;;;45.00;22.85;;;;;;;;;;4948208;28;20150;-64
2022/03/02 08:41:41;;;;;;;40.40;22.17;;;;;;;;;;4948733;28;20083;-64
2022/03/02 08:44:08;;;;;;;39.97;21.50;;;;;;;;;;4949314;28;20508;-65
2022/03/02 08:46:34;;;;;;;44.90;22.42;;;;;;;;;;4947996;28;20550;-65
2022/03/02 08:49:01;;;;;;;40.42;21.15;;;;;;;;;;4949191;28;20520;-64
2022/03/02 08:51:28;;;;;;;39.15;20.80;;;;;;;;;;4948028;28;20056;-64
2022/03/02 08:54:00;;;;;;;43.47;22.48;;;;;;;;;;4948636;28;20060;-64
2022/03/02 08:56:27;;;;;;;44.83;22.80;;;;;;;;;;4948707;28;20143;-64
2022/03/02 08:58:54;;;;;;;42.95;22.25;;;;;;;;;;4947898;28;20059;-64
2022/03/02 09:01:25;;;;;;;38.95;20.88;;;;;;;;;;4945765;28;20550;-64
2022/03/02 09:03:53;;;;;;;41.85;21.67;;;;;;;;;;4948372;28;20503;-64
2022/03/02 09:06:20;;;;;;;42.30;22.03;;;;;;;;;;4948483;28;20062;-64
2022/03/02 09:08:47;;;;;;;43.15;22.75;;;;;;;;;;4948997;28;20080;-64
2022/03/02 09:11:14;;;;;;;42.17;22.35;;;;;;;;;;4948321;28;20142;-65
2022/03/02 09:13:40;;;;;;;35.10;20.42;;;;;;;;;;4948557;28;20056;-64
2022/03/02 09:16:07;;;;;;;36.35;19.80;;;;;;;;;;4948496;28;20055;-64
2022/03/02 09:18:34;;;;;;;42.92;20.60;;;;;;;;;;4948330;28;20139;-64
2022/03/02 09:21:01;;;;;;;37.33;18.77;;;;;;;;;;4948406;28;20138;-64
2022/03/02 09:23:29;;;;;;;32.28;17.10;;;;;;;;;;4947370;28;20087;-65
2022/03/02 09:26:06;;;;;;;34.10;15.65;;;;;;;;;;4947721;28;20063;-64
2022/03/02 09:28:34;;;;;;;27.17;14.02;;;;;;;;;;4947981;28;20056;-65
2022/03/02 09:31:02;;;;;;;;;;;;;;;;;;4948449;28;20150;-65
2022/03/02 09:33:29;;;;;;;28.23;14.77;;;;;;;;;;4947548;28;44146;-66
2022/03/02 09:35:56;;;;;;;30.83;14.57;;;;;;;;;;4947597;28;20560;-66
2022/03/02 09:38:26;;;;;;;34.08;14.70;;;;;;;;;;4947369;28;20058;-66
2022/03/02 09:40:55;;;;;;;30.75;14.98;;;;;;;;;;4948324;28;20080;-66
2022/03/02 09:43:24;;;;;;;31.15;14.45;;;;;;;;;;4946897;28;20525;-66
2022/03/02 09:45:53;;;;;;;25.98;14.60;;;;;;;;;;4939627;28;20143;-68
2022/03/02 09:48:31;;;;;;;30.20;14.88;;;;;;;;;;4942489;28;20084;-67
2022/03/02 09:50:58;;;;;;;34.92;14.88;;;;;;;;;;4945921;28;20095;-66
2022/03/02 09:53:26;;;;;;;28.70;13.60;;;;;;;;;;4946486;28;20528;-66
2022/03/02 09:55:54;;;;;;;24.65;13.65;;;;;;;;;;4947404;28;20363;-67
2022/03/02 09:58:24;;;;;;;26.03;11.57;;;;;;;;;;4948593;28;20066;-67
2022/03/02 10:00:53;;;;;;;24.98;13.15;;;;;;;;;;4947628;28;20055;-67
2022/03/02 10:03:20;;;;;;;31.08;13.05;;;;;;;;;;4949339;28;20430;-67
2022/03/02 10:05:48;;;;;;;26.67;11.18;;;;;;;;;;4948703;28;20573;-66
2022/03/02 10:08:18;;;;;;;23.52;10.48;;;;;;;;;;4951082;28;20064;-67
2022/03/02 10:10:46;;;;;;;21.70;10.43;;;;;;;;;;4951524;28;20056;-68
2022/03/02 10:13:14;;;;;;;23.30;11.02;;;;;;;;;;4950822;28;20428;-67
2022/03/02 10:15:41;;;;;;;24.67;10.30;;;;;;;;;;4948179;28;20147;-67
2022/03/02 10:18:08;;;;;;;23.52;11.25;;;;;;;;;;4951159;28;20051;-67
2022/03/02 10:20:36;;;;;;;23.83;11.40;;;;;;;;;;4942576;28;20528;-66
2022/03/02 10:23:18;;;;;;;24.60;12.33;;;;;;;;;;4949055;28;20113;-67
2022/03/02 10:25:59;;;;;;;23.50;11.63;;;;;;;;;;4951323;28;20143;-66
2022/03/02 10:28:30;;;;;;;25.92;11.80;;;;;;;;;;4949607;28;20066;-68
2022/03/02 10:30:59;;;;;;;29.98;12.20;;;;;;;;;;4948467;28;20058;-65
2022/03/02 10:33:26;;;;;;;22.88;10.90;;;;;;;;;;4940870;28;20048;-65
2022/03/02 10:35:57;;;;;;;19.73;11.00;;;;;;;;;;4950663;28;20059;-66
2022/03/02 10:38:30;;;;;;;24.05;11.50;;;;;;;;;;4950810;28;20062;-66
2022/03/02 10:40:59;;;;;;;21.70;11.07;;;;;;;;;;4948335;28;20043;-66
2022/03/02 10:43:33;;;;;;;19.60;10.95;;;;;;;;;;4949956;28;20066;-65
2022/03/02 10:46:00;;;;;;;20.88;11.23;;;;;;;;;;4951415;28;20837;-65
2022/03/02 10:48:36;;;;;;;30.40;11.13;;;;;;;;;;4949184;28;20054;-66
2022/03/02 10:51:04;;;;;;;22.08;10.20;;;;;;;;;;4949474;28;20051;-66
2022/03/02 10:53:34;;;;;;;20.10;9.43;;;;;;;;;;4950990;28;20051;-66
2022/03/02 10:56:02;;;;;;;16.35;9.00;;;;;;;;;;4950679;28;20288;-66
2022/03/02 10:58:29;;;;;;;18.52;9.25;;;;;;;;;;4950272;28;20151;-66
2022/03/02 11:00:56;;;;;;;19.20;9.43;;;;;;;;;;4950590;28;20062;-65
2022/03/02 11:03:26;;;;;;;21.88;9.45;;;;;;;;;;4950356;28;20561;-65
2022/03/02 11:05:55;;;;;;;17.20;9.00;;;;;;;;;;4948663;28;20056;-66
2022/03/02 11:08:21;;;;;;;;;;;;;;;;;;4950115;28;20056;-66
2022/03/02 11:10:48;;;;;;;20.25;8.65;;;;;;;;;;4949610;28;44738;-66
2022/03/02 11:13:15;;;;;;;15.10;8.30;;;;;;;;;;4949754;28;20135;-66
2022/03/02 11:15:53;;;;;;;23.80;10.18;;;;;;;;;;4947702;28;20495;-66
2022/03/02 11:18:31;;;;;;;21.27;10.25;;;;;;;;;;4949510;28;20153;-66
2022/03/02 11:20:59;;;;;;;15.73;8.73;;;;;;;;;;4949717;28;20059;-66
2022/03/02 11:23:26;;;;;;;16.75;9.30;;;;;;;;;;4947478;28;20059;-66
2022/03/02 11:25:54;;;;;;;14.63;8.27;;;;;;;;;;4938837;28;20051;-66
2022/03/02 11:28:22;;;;;;;18.08;9.23;;;;;;;;;;4949808;28;20058;-66
2022/03/02 11:30:50;;;;;;;18.83;9.73;;;;;;;;;;4949092;28;20151;-66
2022/03/02 11:33:20;;;;;;;18.77;9.27;;;;;;;;;;4947531;28;20748;-67
2022/03/02 11:35:47;;;;;;;15.35;8.38;;;;;;;;;;4948227;28;20733;-66
2022/03/02 11:38:17;;;;;;;14.90;8.23;;;;;;;;;;4948684;28;20058;-66
2022/03/02 11:40:45;;;;;;;17.30;8.55;;;;;;;;;;4948308;28;20060;-66
2022/03/02 11:43:12;;;;;;;16.98;8.13;;;;;;;;;;4948674;28;20109;-65
2022/03/02 11:45:39;;;;;;;18.33;8.57;;;;;;;;;;4949437;28;20055;-66
2022/03/02 11:48:15;;;;;;;16.88;8.77;;;;;;;;;;4948993;28;20066;-66
2022/03/02 11:51:00;;;;;;;15.38;7.78;;;;;;;;;;4948103;28;20052;-66
2022/03/02 11:53:47;;;;;;;17.40;8.90;;;;;;;;;;4949289;28;20147;-66
2022/03/02 11:56:15;;;;;;;15.50;8.40;;;;;;;;;;4949205;28;20064;-66
2022/03/02 11:59:00;;;;;;;22.25;9.20;;;;;;;;;;4948904;28;20048;-66
2022/03/02 12:01:45;;;;;;;16.05;7.88;;;;;;;;;;4948671;28;20055;-65
2022/03/02 12:04:26;;;;;;;16.73;8.05;;;;;;;;;;4948905;28;20525;-65
2022/03/02 12:06:55;;;;;;;14.60;7.70;;;;;;;;;;4948930;28;20055;-65
2022/03/02 12:09:21;;;;;;;;;;;;;;;;;;4950470;28;20083;-65
2022/03/02 12:11:48;;;;;;;16.38;8.27;;;;;;;;;;4947372;28;45798;-66
2022/03/02 12:14:15;;;;;;;14.68;7.78;;;;;;;;;;4949851;28;20054;-65
2022/03/02 12:16:41;;;;;;;14.15;7.38;;;;;;;;;;4934891;28;20190;-65
2022/03/02 12:19:24;;;;;;;15.55;7.70;;;;;;;;;;4948804;28;20560;-66
2022/03/02 12:21:54;;;;;;;14.00;7.25;;;;;;;;;;4946428;28;20088;-66
2022/03/02 12:24:26;;;;;;;14.60;7.07;;;;;;;;;;4948472;28;20522;-65
2022/03/02 12:26:59;;;;;;;14.02;7.32;;;;;;;;;;4947446;28;20060;-65
2022/03/02 12:29:26;;;;;;;16.13;6.80;;;;;;;;;;4949139;28;20056;-65
2022/03/02 12:32:12;;;;;;;20.80;8.45;;;;;;;;;;4949031;28;20514;-65
2022/03/02 12:34:40;;;;;;;16.13;7.75;;;;;;;;;;4947565;28;20056;-65
2022/03/02 12:37:07;;;;;;;13.48;6.93;;;;;;;;;;4947840;28;20415;-66
2022/03/02 12:39:34;;;;;;;16.45;7.47;;;;;;;;;;4949186;28;20060;-66
2022/03/02 12:42:04;;;;;;;15.10;6.93;;;;;;;;;;4947757;28;20044;-63
2022/03/02 12:44:35;;;;;;;13.50;7.60;;;;;;;;;;4946327;28;20876;-65
2022/03/02 12:47:09;;;;;;;15.32;7.22;;;;;;;;;;4949062;28;20059;-65
2022/03/02 12:49:36;;;;;;;14.77;7.75;;;;;;;;;;4949138;28;20052;-64
2022/03/02 12:52:04;;;;;;;14.65;7.63;;;;;;;;;;4949517;28;20062;-65
2022/03/02 12:54:32;;;;;;;14.82;7.82;;;;;;;;;;4949063;28;20058;-64
2022/03/02 12:57:00;;;;;;;15.23;8.10;;;;;;;;;;4948297;28;20058;-64
2022/03/02 12:59:27;;;;;;;16.13;8.00;;;;;;;;;;4949055;28;20066;-64
2022/03/02 13:01:53;;;;;;;14.75;7.30;;;;;;;;;;4948861;28;20063;-64
2022/03/02 13:04:28;;;;;;;16.13;8.15;;;;;;;;;;4949199;28;20059;-64
2022/03/02 13:06:59;;;;;;;15.93;7.93;;;;;;;;;;4948831;28;20055;-64
2022/03/02 13:09:27;;;;;;;14.98;7.13;;;;;;;;;;4949062;28;20056;-64
2022/03/02 13:11:53;;;;;;;15.65;7.53;;;;;;;;;;4948255;28;20513;-64
2022/03/02 13:14:30;;;;;;;15.32;7.43;;;;;;;;;;4946216;28;20059;-69
2022/03/02 13:17:12;;;;;;;11.73;7.05;;;;;;;;;;4946922;28;20048;-65
2022/03/02 13:19:56;;;;;;;15.75;6.88;;;;;;;;;;4948718;28;20071;-65
2022/03/02 13:22:27;;;;;;;14.07;7.35;;;;;;;;;;4948430;28;20058;-65
2022/03/02 13:24:55;;;;;;;13.75;7.00;;;;;;;;;;4947482;28;20064;-65
2022/03/02 13:27:22;;;;;;;14.13;7.50;;;;;;;;;;4948949;28;20170;-64
2022/03/02 13:29:48;;;;;;;13.38;7.30;;;;;;;;;;4948544;28;20054;-65
2022/03/02 13:32:15;;;;;;;15.85;7.43;;;;;;;;;;4948012;28;20151;-66
2022/03/02 13:35:01;;;;;;;13.25;6.88;;;;;;;;;;4947548;28;20047;-66
2022/03/02 13:37:46;;;;;;;14.02;6.38;;;;;;;;;;4946258;28;22310;-67
2022/03/02 13:40:34;;;;;;;14.57;7.13;;;;;;;;;;4951227;28;20163;-66
2022/03/02 13:43:10;;;;;;;16.33;7.60;;;;;;;;;;4952007;28;20151;-65
2022/03/02 13:45:36;;;;;;;13.30;6.75;;;;;;;;;;4950803;28;20146;-65
2022/03/02 13:48:12;;;;;;;14.35;6.95;;;;;;;;;;4951576;28;20062;-65
2022/03/02 13:50:57;;;;;;;12.50;6.72;;;;;;;;;;4951736;28;20508;-66
2022/03/02 13:53:34;;;;;;;11.32;6.00;;;;;;;;;;4949665;28;20514;-65
2022/03/02 13:56:09;;;;;;;13.90;7.00;;;;;;;;;;4932672;28;20060;-65
2022/03/02 13:58:36;;;;;;;13.50;6.35;;;;;;;;;;4933572;29;20056;-67
2022/03/02 14:01:11;;;;;;;12.55;6.60;;;;;;;;;;4945094;28;20135;-65
2022/03/02 14:03:43;;;;;;;17.95;8.50;;;;;;;;;;4948390;28;20055;-65
2022/03/02 14:06:10;;;;;;;14.52;7.68;;;;;;;;;;4949483;28;20059;-65
2022/03/02 14:08:44;;;;;;;12.77;6.50;;;;;;;;;;4951385;28;20048;-65
2022/03/02 14:11:30;;;;;;;12.80;7.10;;;;;;;;;;4949822;28;20054;-66
2022/03/02 14:13:57;;;;;;;13.85;6.63;;;;;;;;;;4952014;28;20654;-66
2022/03/02 14:16:23;;;;;;;14.57;7.95;;;;;;;;;;4950049;28;20055;-65
2022/03/02 14:19:07;;;;;;;13.85;6.85;;;;;;;;;;4949877;28;20062;-66
2022/03/02 14:21:34;;;;;;;17.10;7.88;;;;;;;;;;4951220;28;20481;-66
2022/03/02 14:24:12;;;;;;;13.68;7.07;;;;;;;;;;4949552;28;20190;-66
2022/03/02 14:26:49;;;;;;;13.95;7.38;;;;;;;;;;4949065;28;20052;-66
2022/03/02 14:29:16;;;;;;;11.32;6.65;;;;;;;;;;4951139;28;20488;-66